Racecast

Iyanna Buggs

Hilltop Speed (CA) · 9-10 · PAC · Compare head to head

Athlete rating
Races 67
Seasons 4 2011 — 2014

Track & Field

2014 TF

Hilltop Speed (CA) · Grade 9-10

Date Meet Event Result Place Rating Difficulty PR/SR Flags
2014-06-20 USATF Pacific Assoc. Junior Olympics (Top 8) 200m 34.86 39th · 4th on team -0.038 SR
2014-06-20 USATF Pacific Assoc. Junior Olympics (Top 8) 100m 16.48 34th · 5th on team -0.038
2014-05-31 Pacific Association Championships (PAC) 400m 1:29.17 39th · 4th on team -0.032 SR
2014-05-31 Pacific Association Championships (PAC) 100m 16.95 37th · 3rd on team -0.032
2014-05-25 Los Angeles Jets Invitational 400m 1:30.49 87th · 4th on team -0.049 SR
2014-05-25 Los Angeles Jets Invitational 100m 16.76 74th · 4th on team -0.049
2014-05-10 Hampton Phillips Classic TC sectional 100m 16.93 9th · 1st on team -0.045
2014-04-26 Revolution Express TC 200m 36.59 25th · 3rd on team -0.032
2014-04-26 Revolution Express TC 100m 16.58 18th · 2nd on team -0.032
2014-04-12 Stocton Saints 200m 35.69 14th · 3rd on team -0.043 SR
2014-04-12 Stocton Saints 100m 16.69 14th · 4th on team -0.043
2014-04-05 Sacramento Speed Showcase 100m 16.38 24th · 3rd on team -0.042 SR
2014-04-05 Sacramento Speed Showcase 400m 1:40.4 49th · 4th on team -0.042
2014-03-29 East County Cheetahs TC 100m 17.12 16th · 4th on team -0.030
2014-03-22 RPM 400m 1:38.14 45th · 3rd on team -0.019 SR
2014-03-22 RPM 100m 16.94 22nd · 3rd on team -0.019 SR

2013 TF

Hilltop Speed (CA) · Grade 7-8

Date Meet Event Result Place Rating Difficulty PR/SR Flags
2013-07-06 Region 14 Junior Olympics T&F (2-day) 100m 17.49 4th · 1st on team -0.043
2013-07-06 Region 14 Junior Olympics T&F (2-day) 200m 35.35 5th · 1st on team -0.043
2013-06-21 Pacific Association Junior Olympics (3-day) 200m 35.7 12th · 1st on team -0.034
2013-06-21 Pacific Association Junior Olympics (3-day) 400m 1:24.15 13th · 1st on team -0.034 ★PR SR
2013-06-21 Pacific Association Junior Olympics (3-day) 400m 1:24.25 14th · 2nd on team -0.034
2013-06-21 Pacific Association Junior Olympics (3-day) 100m 16.59 6th · 1st on team -0.034
2013-06-21 Pacific Association Junior Olympics (3-day) 100m 16.88 16th · 2nd on team -0.034
2013-06-08 Pacific Association Youth Championship (PAC) - 2-day meet 200m 36.47 14th · 1st on team -0.032
2013-06-08 Pacific Association Youth Championship (PAC) - 2-day meet 100m 17.06 11th · 2nd on team -0.032
2013-06-08 Pacific Association Youth Championship (PAC) - 2-day meet 100m 16.92 10th · 1st on team -0.032
2013-06-01 100 Black Men Tommie Smith 100m 16.56 10th · 1st on team -0.041
2013-06-01 100 Black Men Tommie Smith 400m 1:27.43 6th · 1st on team -0.041 PR SR
2013-06-01 100 Black Men Tommie Smith 100m 16.8 14th · 2nd on team -0.041
2013-06-01 100 Black Men Tommie Smith 200m 34.77 4th · 1st on team -0.041 ★PR SR
2013-05-18 3M Track Club 200m 36.02 7th · 1st on team -0.040
2013-05-18 3M Track Club 100m 16.3 8th · 1st on team -0.040 ★PR SR
2013-05-18 3M Track Club 100m 16.53 10th · 2nd on team -0.040
2013-05-04 Hercules / Running Rebels (2-day) 200m 36.28 7th · 1st on team -0.047
2013-04-27 Revolution Express Track Club 200m 41.72 9th · 1st on team -0.032
2013-04-27 Revolution Express Track Club 400m 1:32 4th · 1st on team -0.032
2013-04-27 Revolution Express Track Club 100m 16.9 5th · 1st on team -0.032
2013-04-20 Shor / Sheppard Classic 200m 35.59 4th · 1st on team -0.036 SR
2013-04-20 Shor / Sheppard Classic 100m 16.46 3rd · 1st on team -0.036 PR SR
2013-04-13 CA Track Club 100m 16.8 3rd · 1st on team -0.048 PR SR
2013-04-13 CA Track Club 400m 1:33.29 9th · 1st on team -0.048
2013-04-13 CA Track Club 200m 37.04 4th · 1st on team -0.048
2013-04-06 Sacramento Speed Showcase 100m 17.37 5th · 1st on team -0.042 SR
2013-04-06 Sacramento Speed Showcase 200m 36.92 5th · 1st on team -0.042 SR
2013-04-06 Sacramento Speed Showcase 400m 1:30.27 9th · 1st on team -0.042 SR

2012 TF

Hilltop Speed (CA) · Grade 7-8

Date Meet Event Result Place Rating Difficulty PR/SR Flags
2012-06-09 Pacific Association Youth Championships 200m 35.19 15th · 3rd on team -0.034 PR SR
2012-06-09 Pacific Association Youth Championships 400m 1:34.74 12th · 2nd on team -0.034
2012-06-09 Pacific Association Youth Championships 200m 36.99 22nd · 4th on team -0.034
2012-05-05 Hercules Running Rebels / Top Pacers Invitational 100m 17.45 22nd · 2nd on team -0.047
2012-05-05 Hercules Running Rebels / Top Pacers Invitational 400m 1:33.15 19th · 2nd on team -0.047
2012-05-05 Hercules Running Rebels / Top Pacers Invitational 200m 35.96 9th · 2nd on team -0.047 PR SR
2012-04-21 Shor / Sheppard Classic 100m 17.6 16th · 1st on team -0.036
2012-04-21 Shor / Sheppard Classic 400m 1:28.55 13th · 2nd on team -0.036 PR SR
2012-04-14 CA Spring Fling Track Invitational 400m 1:28.92 6th · 2nd on team -0.048 PR SR
2012-04-14 CA Spring Fling Track Invitational 100m 17.34 2nd · 1st on team -0.048
2012-04-14 CA Spring Fling Track Invitational 200m 38.57 3rd · 2nd on team -0.048
2012-04-07 Phenom Elite 100m 17.23 9th · 1st on team -0.044 PR SR
2012-04-07 Phenom Elite 400m 1:32.51 14th · 2nd on team -0.044 PR SR
2012-03-24 Revolution Express Track Club 400m 1:33.24 6th · 2nd on team -0.032 PR SR
2012-03-24 Revolution Express Track Club 200m 37.24 3rd · 1st on team -0.032 PR SR
2012-03-24 Revolution Express Track Club 100m 18.09 8th · 2nd on team -0.032 SR
2012-01-21 Run for the Dream 55m 10.88 10th · 1st on team -0.026 ★PR SR

2011 TF

Hilltop Speed (CA) · Grade 7-8

Date Meet Event Result Place Rating Difficulty PR/SR Flags
2011-06-11 PA USATF Youth Championships (PAC) 200m 38.99 5th · 2nd on team -0.040 PR SR
2011-06-11 PA USATF Youth Championships (PAC) 100m 17.64 1st · 1st on team -0.040 PR SR
2011-06-11 PA USATF Youth Championships (PAC) 200m 38.05 3rd · 1st on team -0.040 PR SR
2011-05-14 3M Track Club Invitational 200m 39.49 10th · 1st on team -0.040 PR SR
2011-05-14 3M Track Club Invitational 100m 18.33 22nd · 1st on team -0.040 PR SR